Allentown, Arizona
Current Conditions -  °F | °C
As of 4:53 AM on Wednesday 26 Nov 2014 (Local Time) from KGUP Reporting Station
Clear Clear  
Wind Chill: 11°   Ceiling: Unl
Heat Index: 19°   Visibility: 10mi
Dew Point:   Wind: 6mph
Humidity: 46%   Direction: 290°WNW
Pressure: 30.38"   Gusts: NA
Location:  35.2918°N, 109.157°W
Report Text: KGUP 261153Z AUTO 29005KT 10SM CLR M07/M17 A3038 RMK AO2 SLP310 T10721172 11033 21078 55000
Loading
Personal Weather Stations






























Interactive Weather Map New forecast layout! Learn more

10-Day Weather Forecast

Advertisements
Track Severe Weather on mobile